Trisler, Kentucky
Current Conditions -  °F | °C
As of 9:56 AM on Thursday 27 Nov 2014 (Local Time) from KOWB Reporting Station
Overcast Overcast  
Wind Chill: 19°   Ceiling: 1700
Heat Index: 30°   Visibility: 7mi
Dew Point: 25°   Wind: 16mph
Humidity: 82%   Direction: 340°NNW
Pressure: 30.44"   Gusts: NA
Location:  37.6216°N, 86.7165°W
Report Text: KOWB 271556Z 34014KT 7SM OVC017 M01/M04 A3044 RMK AO2 T10111038 SLP312
Loading
Personal Weather Stations






























Interactive Weather Map New forecast layout! Learn more

10-Day Weather Forecast

Advertisements
Track Severe Weather on mobile